Time;durP1;ratioP1;P1;durP2;ratioP2;P2;SDS_P1;SDS_P2;PMS_P1;PMS_P2;Temp;Humidity;BMP_temperature;BMP_pressure;BME280_temperature;BME280_humidity;BME280_pressure;Samples;Min_cycle;Max_cycle;Signal;HPM_P1;HPM_P2
2021/12/02 00:01:58;;;;;;;4.10;1.55;;;6.80;99.90;;;;;;5032831;28;20022;-50
2021/12/02 00:04:26;;;;;;;4.05;1.70;;;6.80;99.90;;;;;;5032685;28;20032;-51
2021/12/02 00:06:52;;;;;;;3.42;1.80;;;6.90;99.90;;;;;;5032816;28;20028;-53
2021/12/02 00:09:17;;;;;;;3.30;1.63;;;6.90;99.90;;;;;;5032452;28;20026;-52
2021/12/02 00:11:43;;;;;;;3.47;1.40;;;6.90;99.90;;;;;;5032450;28;20029;-52
2021/12/02 00:14:13;;;;;;;4.00;1.52;;;7.00;99.90;;;;;;5032381;28;20394;-51
2021/12/02 00:22:10;;;;;;;4.28;1.58;;;7.00;99.90;;;;;;5032629;28;20033;-53
2021/12/02 00:24:38;;;;;;;2.50;1.55;;;6.90;99.90;;;;;;5032374;28;20112;-50
2021/12/02 00:27:06;;;;;;;2.92;1.70;;;6.90;99.90;;;;;;5032417;28;20021;-53
2021/12/02 00:29:33;;;;;;;4.70;1.80;;;7.00;99.90;;;;;;5032039;28;20101;-56
2021/12/02 00:32:02;;;;;;;2.78;1.58;;;7.10;99.90;;;;;;5032304;28;20112;-56
2021/12/02 00:34:29;;;;;;;4.07;1.80;;;7.00;99.90;;;;;;5032171;28;20434;-58
2021/12/02 00:36:56;;;;;;;1.90;1.50;;;6.90;99.90;;;;;;5014619;28;20071;-64
2021/12/02 00:39:21;;;;;;;1.88;1.73;;;6.90;99.90;;;;;;5031326;28;20496;-53
2021/12/02 00:41:47;;;;;;;1.80;1.70;;;6.90;99.90;;;;;;5032234;28;20030;-55
2021/12/02 00:44:15;;;;;;;3.22;1.85;;;6.90;99.90;;;;;;5031890;28;20025;-54
2021/12/02 00:46:40;;;;;;;4.22;1.70;;;6.80;99.90;;;;;;5014135;28;20163;-56
2021/12/02 00:49:11;;;;;;;5.72;1.40;;;6.90;99.90;;;;;;5031964;28;20446;-53
2021/12/02 00:51:38;;;;;;;4.28;1.85;;;6.90;99.90;;;;;;5032142;28;20476;-53
2021/12/02 00:54:09;;;;;;;3.22;1.40;;;6.90;99.90;;;;;;5032545;28;20037;-56
2021/12/02 00:56:35;;;;;;;4.35;1.83;;;6.70;99.90;;;;;;5014216;28;20036;-53
2021/12/02 00:59:03;;;;;;;16.00;2.38;;;6.60;99.90;;;;;;5031667;28;20398;-53
2021/12/02 01:01:34;;;;;;;2.30;1.40;;;6.60;99.90;;;;;;5031582;28;20032;-57
2021/12/02 01:04:01;;;;;;;3.67;1.70;;;6.80;99.90;;;;;;5031760;28;20513;-51
2021/12/02 01:06:27;;;;;;;3.97;2.10;;;6.70;99.90;;;;;;5031843;28;20029;-54
2021/12/02 01:08:53;;;;;;;7.07;1.70;;;6.70;99.90;;;;;;5031646;28;20029;-55
2021/12/02 01:11:20;;;;;;;4.22;1.50;;;6.70;99.90;;;;;;5031372;28;20026;-55
2021/12/02 01:13:46;;;;;;;3.35;2.08;;;6.80;99.90;;;;;;5031313;28;20029;-52
2021/12/02 01:16:12;;;;;;;3.22;1.85;;;6.90;99.90;;;;;;5031623;28;20033;-54
2021/12/02 01:18:38;;;;;;;6.30;2.38;;;6.90;99.90;;;;;;5031700;28;20057;-54
2021/12/02 01:21:04;;;;;;;4.78;1.73;;;7.00;99.90;;;;;;5031324;28;20018;-54
2021/12/02 01:23:32;;;;;;;1.65;1.27;;;7.00;99.90;;;;;;5030830;28;20035;-54
2021/12/02 01:26:05;;;;;;;4.38;2.28;;;6.90;99.90;;;;;;5030643;28;20033;-54
2021/12/02 01:28:32;;;;;;;4.68;2.03;;;6.90;99.90;;;;;;5031392;28;20022;-52
2021/12/02 01:30:58;;;;;;;5.25;2.00;;;6.80;99.90;;;;;;5031294;28;20037;-56
2021/12/02 01:33:26;;;;;;;5.32;2.10;;;6.80;99.90;;;;;;5031397;28;20585;-55
2021/12/02 01:35:56;;;;;;;3.08;1.73;;;6.80;99.90;;;;;;5031384;28;20032;-55
2021/12/02 01:38:26;;;;;;;3.75;1.63;;;6.70;99.90;;;;;;5031021;28;20026;-56
2021/12/02 01:40:55;;;;;;;3.90;2.28;;;6.70;99.90;;;;;;5030845;28;20036;-53
2021/12/02 01:43:31;;;;;;;3.00;1.80;;;6.80;99.90;;;;;;5031246;28;20022;-55
2021/12/02 01:45:57;;;;;;;3.38;1.77;;;6.80;99.90;;;;;;5031321;28;20079;-53
2021/12/02 01:48:25;;;;;;;3.40;2.30;;;6.70;99.90;;;;;;5031253;28;20434;-55
2021/12/02 01:51:03;;;;;;;3.28;2.03;;;6.70;99.90;;;;;;5030849;28;20099;-53
2021/12/02 01:53:32;;;;;;;6.28;2.20;;;6.80;99.90;;;;;;5031025;28;20029;-52
2021/12/02 01:56:13;;;;;;;10.63;3.38;;;6.90;99.90;;;;;;5031158;28;20026;-54
2021/12/02 01:58:49;;;;;;;1.90;1.80;;;6.90;99.90;;;;;;5031185;28;20497;-55
2021/12/02 02:01:20;;;;;;;4.03;2.00;;;6.90;99.90;;;;;;5030759;28;20117;-51
2021/12/02 02:03:47;;;;;;;4.85;2.38;;;6.90;99.90;;;;;;5031083;28;20049;-52
2021/12/02 02:06:18;;;;;;;3.38;2.03;;;6.80;99.90;;;;;;5031242;28;20490;-54
2021/12/02 02:08:45;;;;;;;3.80;2.22;;;6.70;99.90;;;;;;5031229;28;20436;-53
2021/12/02 02:11:11;;;;;;;2.42;1.67;;;6.70;99.90;;;;;;5030807;28;20049;-53
2021/12/02 02:13:40;;;;;;;1.70;1.60;;;6.60;99.90;;;;;;5030713;28;20068;-51
2021/12/02 02:16:06;;;;;;;6.07;1.60;;;6.60;99.90;;;;;;5031035;28;20479;-53
2021/12/02 02:18:31;;;;;;;2.65;1.27;;;6.50;99.90;;;;;;5030976;28;20025;-55
2021/12/02 02:23:26;;;;;;;5.07;1.83;;;6.50;99.90;;;;;;5031357;28;20542;-55
2021/12/02 02:25:52;;;;;;;4.30;1.17;;;6.40;99.90;;;;;;5030835;28;20479;-54
2021/12/02 02:28:18;;;;;;;2.80;1.20;;;6.40;99.90;;;;;;5030835;28;20017;-52
2021/12/02 02:30:44;;;;;;;4.88;1.30;;;6.30;99.90;;;;;;5030500;28;20142;-54
2021/12/02 02:33:13;;;;;;;1.38;0.98;;;6.30;99.90;;;;;;5030800;28;20465;-53
2021/12/02 02:35:40;;;;;;;2.85;1.20;;;6.30;99.90;;;;;;5033351;28;20105;-51
2021/12/02 02:38:05;;;;;;;1.63;0.77;;;6.20;99.90;;;;;;5034759;28;20052;-52
2021/12/02 02:40:32;;;;;;;1.70;0.98;;;6.20;99.90;;;;;;5015672;28;20158;-54
2021/12/02 02:43:04;;;;;;;3.13;1.00;;;6.10;99.90;;;;;;5034261;28;20021;-53
2021/12/02 02:45:30;;;;;;;3.47;0.98;;;6.10;99.90;;;;;;5034193;28;20025;-54
2021/12/02 02:47:55;;;;;;;1.55;1.27;;;6.00;99.90;;;;;;5034145;28;20029;-56
2021/12/02 02:50:21;;;;;;;2.72;0.65;;;6.00;99.90;;;;;;5033847;28;20033;-50
2021/12/02 02:52:49;;;;;;;2.15;0.80;;;5.90;99.90;;;;;;5034049;28;20029;-53
2021/12/02 02:55:22;;;;;;;2.78;0.70;;;5.90;99.90;;;;;;5033989;28;20367;-53
2021/12/02 02:58:00;;;;;;;4.78;0.90;;;6.00;99.90;;;;;;5033964;28;20028;-52
2021/12/02 03:00:41;;;;;;;2.70;0.88;;;6.00;99.90;;;;;;5033488;28;20112;-52
2021/12/02 03:03:27;;;;;;;3.33;1.17;;;6.00;99.90;;;;;;5033960;28;20022;-53
2021/12/02 03:08:39;;;;;;;12.43;2.05;;;6.00;99.90;;;;;;5033981;28;20029;-51
2021/12/02 03:11:06;;;;;;;4.78;1.15;;;6.00;99.90;;;;;;5033407;28;20510;-55
2021/12/02 03:13:47;;;;;;;1.85;1.05;;;6.00;99.90;;;;;;5033412;28;20036;-53
2021/12/02 03:18:56;;;;;;;3.80;0.85;;;5.80;99.90;;;;;;5013747;28;20403;-47
2021/12/02 03:21:23;;;;;;;9.65;1.15;;;5.80;99.90;;;;;;5013782;28;20030;-47
2021/12/02 03:23:54;;;;;;;3.28;0.88;;;5.80;99.90;;;;;;5013750;28;20096;-49
2021/12/02 03:26:21;;;;;;;3.25;1.40;;;5.70;99.90;;;;;;5030513;28;20392;-50
2021/12/02 03:28:48;;;;;;;6.75;1.35;;;5.70;99.90;;;;;;5033449;28;20100;-50
2021/12/02 03:31:13;;;;;;;4.07;1.52;;;5.70;99.90;;;;;;5033158;28;20030;-48
2021/12/02 03:33:40;;;;;;;4.10;1.30;;;5.70;99.90;;;;;;5033380;28;20510;-47
2021/12/02 03:36:06;;;;;;;7.45;1.83;;;5.70;99.90;;;;;;5033245;28;20045;-46
2021/12/02 03:38:31;;;;;;;5.15;0.98;;;5.80;99.90;;;;;;5032578;28;20072;-47
2021/12/02 03:40:57;;;;;;;3.10;0.90;;;5.70;99.90;;;;;;5032744;28;20057;-48
2021/12/02 03:43:22;;;;;;;3.40;0.88;;;5.70;99.90;;;;;;5033078;28;20067;-48
2021/12/02 03:45:49;;;;;;;1.52;1.00;;;5.70;99.90;;;;;;5032496;28;20029;-47
2021/12/02 03:48:15;;;;;;;7.57;1.77;;;5.60;99.90;;;;;;5032948;28;20026;-48
2021/12/02 03:50:40;;;;;;;4.13;1.00;;;5.60;99.90;;;;;;5032588;28;20091;-44
2021/12/02 03:53:06;;;;;;;5.50;1.33;;;5.60;99.90;;;;;;5032925;28;20034;-46
2021/12/02 03:55:31;;;;;;;9.35;1.60;;;5.50;99.90;;;;;;5032774;28;20030;-44
2021/12/02 03:57:57;;;;;;;6.47;1.30;;;5.50;99.90;;;;;;5032805;28;20108;-49
2021/12/02 04:00:23;;;;;;;1.98;1.00;;;5.50;99.90;;;;;;5032796;28;20300;-45
2021/12/02 04:02:49;;;;;;;3.97;1.10;;;5.60;99.90;;;;;;5032597;28;20021;-46
2021/12/02 04:05:15;;;;;;;2.78;1.13;;;5.60;99.90;;;;;;5032668;28;20078;-49
2021/12/02 04:07:40;;;;;;;4.70;0.80;;;5.60;99.90;;;;;;5032720;28;20026;-47
2021/12/02 04:10:06;;;;;;;3.45;1.10;;;5.40;99.90;;;;;;5032149;28;20029;-46
2021/12/02 04:12:49;;;;;;;8.25;2.47;;;5.30;99.90;;;;;;5032625;28;20156;-46
2021/12/02 04:15:22;;;;;;;5.05;1.17;;;5.20;99.90;;;;;;5032558;28;20069;-50
2021/12/02 04:17:48;;;;;;;6.25;1.15;;;5.20;99.90;;;;;;5032509;28;20029;-44
2021/12/02 04:20:20;;;;;;;4.53;1.08;;;5.30;99.90;;;;;;5032192;28;20028;-45
2021/12/02 04:22:46;;;;;;;2.63;0.65;;;5.30;99.90;;;;;;5032456;28;20156;-45
2021/12/02 04:25:12;;;;;;;3.28;0.85;;;5.30;99.90;;;;;;5032571;28;20028;-46
2021/12/02 04:27:38;;;;;;;4.63;1.30;;;5.30;99.90;;;;;;5032283;28;20476;-46
2021/12/02 04:30:07;;;;;;;3.25;1.05;;;5.30;99.90;;;;;;5032003;28;20034;-48
2021/12/02 04:32:33;;;;;;;2.80;0.82;;;5.20;99.90;;;;;;5032165;28;20410;-48
2021/12/02 04:34:58;;;;;;;3.97;1.08;;;5.20;99.90;;;;;;5032080;28;20036;-42
2021/12/02 04:37:24;;;;;;;7.25;1.65;;;5.30;99.90;;;;;;5030895;28;20029;-46
2021/12/02 04:39:49;;;;;;;5.20;1.55;;;5.30;99.90;;;;;;5031230;28;20084;-49
2021/12/02 04:42:15;;;;;;;3.80;1.15;;;5.30;99.90;;;;;;5032012;28;20047;-46
2021/12/02 04:44:41;;;;;;;4.50;1.15;;;5.30;99.90;;;;;;5031986;28;20021;-46
2021/12/02 04:47:06;;;;;;;10.70;2.17;;;5.30;99.90;;;;;;5031884;28;20022;-46
2021/12/02 04:49:32;;;;;;;5.97;1.45;;;5.30;99.90;;;;;;5031658;28;20033;-49
2021/12/02 04:51:58;;;;;;;2.88;1.70;;;5.40;99.90;;;;;;5032015;28;20033;-43
2021/12/02 04:54:24;;;;;;;5.20;1.10;;;5.40;99.90;;;;;;5031802;28;20029;-48
2021/12/02 04:56:49;;;;;;;2.50;0.60;;;5.40;99.90;;;;;;5029932;28;20390;-45
2021/12/02 04:59:15;;;;;;;4.15;1.98;;;5.40;99.90;;;;;;5031463;28;20412;-44
2021/12/02 05:01:40;;;;;;;4.25;0.95;;;5.30;99.90;;;;;;5031826;28;20033;-48
2021/12/02 05:04:06;;;;;;;2.85;0.93;;;5.30;99.90;;;;;;5032064;28;20029;-46
2021/12/02 05:06:31;;;;;;;3.33;1.05;;;5.40;99.90;;;;;;5031661;28;20383;-47
2021/12/02 05:08:57;;;;;;;4.00;0.90;;;5.40;99.90;;;;;;5031692;28;20048;-48
2021/12/02 05:11:23;;;;;;;4.25;0.90;;;5.40;99.90;;;;;;5031403;28;20029;-52
2021/12/02 05:13:49;;;;;;;2.38;0.85;;;5.30;99.90;;;;;;5031643;28;20028;-45
2021/12/02 05:16:14;;;;;;;3.22;0.80;;;5.20;99.90;;;;;;5031708;28;20116;-45
2021/12/02 05:18:40;;;;;;;4.15;1.08;;;5.20;99.90;;;;;;5031893;28;20025;-45
2021/12/02 05:21:06;;;;;;;6.05;0.85;;;5.10;99.90;;;;;;5031540;28;20032;-49
2021/12/02 05:23:31;;;;;;;2.70;0.80;;;5.20;99.90;;;;;;5031635;28;20083;-46
2021/12/02 05:25:57;;;;;;;2.92;0.60;;;5.30;99.90;;;;;;5031390;28;20021;-50
2021/12/02 05:28:23;;;;;;;1.50;1.02;;;5.30;99.90;;;;;;5031760;28;20365;-46
2021/12/02 05:30:49;;;;;;;2.00;0.57;;;5.40;99.90;;;;;;5031366;28;20033;-50
2021/12/02 05:33:15;;;;;;;2.35;0.80;;;5.30;99.90;;;;;;5031590;28;20037;-50
2021/12/02 05:35:41;;;;;;;0.68;0.40;;;5.30;99.90;;;;;;5031578;28;20037;-48
2021/12/02 05:38:06;;;;;;;0.55;0.50;;;5.30;99.90;;;;;;5031855;28;20033;-47
2021/12/02 05:40:32;;;;;;;4.78;0.77;;;5.30;99.90;;;;;;5029922;28;20030;-45
2021/12/02 05:42:57;;;;;;;2.65;0.60;;;5.40;99.90;;;;;;5033254;28;20107;-47
2021/12/02 05:45:23;;;;;;;1.02;0.47;;;5.40;99.90;;;;;;5032245;28;20014;-49
2021/12/02 05:47:49;;;;;;;5.15;0.70;;;5.50;99.90;;;;;;5031918;28;20024;-45
2021/12/02 05:50:14;;;;;;;1.88;0.60;;;5.40;99.90;;;;;;5030244;28;20076;-49
2021/12/02 05:52:40;;;;;;;4.20;0.95;;;5.40;99.90;;;;;;5032806;28;20038;-50
2021/12/02 05:55:06;;;;;;;1.95;0.60;;;5.40;99.90;;;;;;5031440;28;20034;-50
2021/12/02 05:57:32;;;;;;;3.08;0.50;;;5.40;99.90;;;;;;5031384;28;20033;-49
2021/12/02 05:59:58;;;;;;;0.57;0.57;;;5.30;99.90;;;;;;5034345;28;20117;-52
2021/12/02 06:02:24;;;;;;;0.73;0.50;;;5.30;99.90;;;;;;5034203;28;20033;-52
2021/12/02 06:04:51;;;;;;;1.30;0.65;;;5.30;99.90;;;;;;5035218;28;20429;-52
2021/12/02 06:07:17;;;;;;;1.15;0.70;;;5.30;99.90;;;;;;5035515;28;20017;-52
2021/12/02 06:09:43;;;;;;;1.65;1.15;;;5.30;99.90;;;;;;5038360;28;20423;-52
2021/12/02 06:12:09;;;;;;;3.92;0.90;;;5.20;99.90;;;;;;5036358;28;20029;-48
2021/12/02 06:14:34;;;;;;;2.47;0.47;;;5.30;99.90;;;;;;5034881;28;20034;-49
2021/12/02 06:17:00;;;;;;;6.07;0.85;;;5.20;99.90;;;;;;5034082;28;20037;-46
2021/12/02 06:19:25;;;;;;;1.30;0.65;;;5.30;99.90;;;;;;5034577;28;20040;-45
2021/12/02 06:21:51;;;;;;;2.10;0.82;;;5.30;99.90;;;;;;5034865;28;20017;-49
2021/12/02 06:24:17;;;;;;;2.95;1.08;;;5.30;99.90;;;;;;5034495;28;20056;-49
2021/12/02 06:26:43;;;;;;;1.75;0.90;;;5.30;99.90;;;;;;5034508;28;20017;-45
2021/12/02 06:29:08;;;;;;;1.80;0.90;;;5.30;99.90;;;;;;5032987;28;20032;-45
2021/12/02 06:31:34;;;;;;;3.83;1.27;;;5.40;99.90;;;;;;5049826;28;20026;-47
2021/12/02 06:34:00;;;;;;;4.30;0.85;;;5.50;99.90;;;;;;5034397;28;20108;-49
2021/12/02 06:36:25;;;;;;;2.60;1.25;;;5.50;99.90;;;;;;5034508;28;20052;-45
2021/12/02 06:38:51;;;;;;;2.30;0.80;;;5.50;99.90;;;;;;5033932;28;20428;-47
2021/12/02 06:41:18;;;;;;;1.38;0.80;;;5.40;99.90;;;;;;5034133;28;20029;-47
2021/12/02 06:43:44;;;;;;;4.30;0.80;;;5.40;99.90;;;;;;5033124;28;20442;-48
2021/12/02 06:46:09;;;;;;;4.25;0.73;;;5.40;99.90;;;;;;5034261;28;20029;-46
2021/12/02 06:48:35;;;;;;;2.15;0.80;;;5.30;99.90;;;;;;5034197;28;20448;-47
2021/12/02 06:51:01;;;;;;;0.90;0.73;;;5.20;99.90;;;;;;5033916;28;20059;-49
2021/12/02 06:53:27;;;;;;;2.35;0.90;;;5.30;99.90;;;;;;5034467;28;20095;-48
2021/12/02 06:55:52;;;;;;;1.15;0.98;;;5.30;99.90;;;;;;5033999;28;20029;-49
2021/12/02 06:58:18;;;;;;;1.10;0.70;;;5.20;99.90;;;;;;5034418;28;20115;-49
2021/12/02 07:00:43;;;;;;;3.45;0.88;;;5.30;99.90;;;;;;5033766;28;20037;-45
2021/12/02 07:03:09;;;;;;;4.07;1.25;;;5.30;99.90;;;;;;5033876;28;20017;-52
2021/12/02 07:05:35;;;;;;;1.17;0.82;;;5.30;99.90;;;;;;5033904;28;20045;-45
2021/12/02 07:08:01;;;;;;;1.95;1.02;;;5.40;99.90;;;;;;5033946;28;20026;-46
2021/12/02 07:10:28;;;;;;;5.80;1.10;;;5.30;99.90;;;;;;5033724;28;20025;-45
2021/12/02 07:12:56;;;;;;;1.48;0.90;;;5.30;99.90;;;;;;5033978;28;20483;-49
2021/12/02 07:17:56;;;;;;;3.80;1.35;;;5.30;99.90;;;;;;5033558;28;20049;-47
2021/12/02 07:20:23;;;;;;;4.07;1.13;;;5.30;99.90;;;;;;5032382;28;20392;-50
2021/12/02 07:22:49;;;;;;;1.73;0.93;;;5.30;99.90;;;;;;5033690;28;20092;-49
2021/12/02 07:25:15;;;;;;;6.40;0.88;;;5.30;99.90;;;;;;5033434;28;20472;-49
2021/12/02 07:27:42;;;;;;;3.53;1.00;;;5.30;99.90;;;;;;5033579;28;20028;-48
2021/12/02 07:30:08;;;;;;;4.85;1.77;;;5.40;99.90;;;;;;5033192;28;20506;-52
2021/12/02 07:32:39;;;;;;;4.65;1.33;;;5.40;99.90;;;;;;5033379;28;20029;-46
2021/12/02 07:35:12;;;;;;;3.05;1.42;;;5.40;99.90;;;;;;5033255;28;20033;-45
2021/12/02 07:37:44;;;;;;;3.65;1.73;;;5.40;99.90;;;;;;5033393;28;20057;-48
2021/12/02 07:40:11;;;;;;;7.88;1.83;;;5.40;99.90;;;;;;5032382;28;20022;-45
2021/12/02 07:42:37;;;;;;;3.63;1.38;;;5.30;99.90;;;;;;5033124;28;20032;-49
2021/12/02 07:45:04;;;;;;;2.30;1.20;;;5.30;99.90;;;;;;5033195;28;20029;-47
2021/12/02 07:47:32;;;;;;;4.93;1.15;;;5.30;99.90;;;;;;5033132;28;20025;-47
2021/12/02 07:49:57;;;;;;;9.60;1.50;;;5.30;99.90;;;;;;5026161;28;20193;-47
2021/12/02 07:52:25;;;;;;;4.00;1.50;;;5.30;99.90;;;;;;5026186;28;20106;-45
2021/12/02 07:54:52;;;;;;;2.90;1.55;;;5.30;99.90;;;;;;5032981;28;20482;-48
2021/12/02 07:57:18;;;;;;;1.95;1.00;;;5.30;99.90;;;;;;5032743;28;20053;-53
2021/12/02 07:59:47;;;;;;;4.00;1.63;;;5.30;99.90;;;;;;5032894;28;20380;-46
2021/12/02 08:02:15;;;;;;;4.60;1.13;;;5.30;99.90;;;;;;5013594;28;20036;-44
2021/12/02 08:04:41;;;;;;;3.33;1.17;;;5.30;99.90;;;;;;5012447;28;20022;-43
2021/12/02 08:07:07;;;;;;;4.63;1.63;;;5.30;99.90;;;;;;5031560;28;20036;-46
2021/12/02 08:09:32;;;;;;;1.42;1.20;;;5.30;99.90;;;;;;5032084;28;20061;-45
2021/12/02 08:11:59;;;;;;;4.32;1.65;;;5.30;99.90;;;;;;5032897;28;20026;-46
2021/12/02 08:14:25;;;;;;;2.30;2.13;;;5.30;99.90;;;;;;5032611;28;20664;-47
2021/12/02 08:16:51;;;;;;;2.38;1.60;;;5.30;99.90;;;;;;5031957;28;20033;-47
2021/12/02 08:19:16;;;;;;;2.70;1.75;;;5.30;99.90;;;;;;5031925;28;20033;-50
2021/12/02 08:21:42;;;;;;;3.42;1.63;;;5.30;99.90;;;;;;5032451;28;20391;-45
2021/12/02 08:24:08;;;;;;;2.58;1.30;;;5.30;99.90;;;;;;5032584;28;20029;-44
2021/12/02 08:26:34;;;;;;;2.63;1.33;;;5.30;99.90;;;;;;5032795;28;20033;-47
2021/12/02 08:29:00;;;;;;;1.58;1.48;;;5.30;99.90;;;;;;5032409;28;20148;-50
2021/12/02 08:31:26;;;;;;;1.55;1.45;;;5.30;99.90;;;;;;5032322;28;20368;-51
2021/12/02 08:33:53;;;;;;;4.32;1.65;;;5.30;99.90;;;;;;5033394;28;20028;-49
2021/12/02 08:36:23;;;;;;;2.25;1.50;;;5.30;99.90;;;;;;5033230;28;20399;-47
2021/12/02 08:38:49;;;;;;;2.70;1.67;;;5.40;99.90;;;;;;5032220;28;20023;-50
2021/12/02 08:41:18;;;;;;;1.35;1.25;;;5.40;99.90;;;;;;5031965;28;20017;-47
2021/12/02 08:43:48;;;;;;;1.05;1.05;;;5.40;99.90;;;;;;5032285;28;20048;-49
2021/12/02 08:46:15;;;;;;;2.88;1.35;;;5.40;99.90;;;;;;5030732;28;20033;-48
2021/12/02 08:48:41;;;;;;;1.30;1.20;;;5.40;99.90;;;;;;5030810;28;20026;-46
2021/12/02 08:51:06;;;;;;;1.92;1.30;;;5.40;99.90;;;;;;5032082;28;20488;-54
2021/12/02 08:53:32;;;;;;;1.55;1.20;;;5.50;99.90;;;;;;5032102;28;20117;-47
2021/12/02 08:55:58;;;;;;;1.25;1.20;;;5.60;99.90;;;;;;5031944;28;20083;-51
2021/12/02 08:58:23;;;;;;;1.23;1.23;;;5.70;99.90;;;;;;5032042;28;20097;-48
2021/12/02 09:00:50;;;;;;;1.17;1.10;;;5.70;99.90;;;;;;5031703;28;20060;-47
2021/12/02 09:03:16;;;;;;;4.10;2.33;;;5.70;99.90;;;;;;5032259;28;20476;-47
2021/12/02 09:05:43;;;;;;;1.33;1.30;;;5.80;99.90;;;;;;5032104;28;20029;-49
2021/12/02 09:08:09;;;;;;;1.77;1.40;;;5.70;99.90;;;;;;5032324;28;20013;-48
2021/12/02 09:10:37;;;;;;;1.48;1.38;;;5.70;99.90;;;;;;5031803;28;20091;-46
2021/12/02 09:13:10;;;;;;;1.50;1.40;;;5.70;99.90;;;;;;5031900;28;20061;-45
2021/12/02 09:15:37;;;;;;;1.88;1.70;;;5.70;99.90;;;;;;5033046;28;20079;-51
2021/12/02 09:18:03;;;;;;;1.35;1.35;;;5.60;99.90;;;;;;5032243;28;20109;-52
2021/12/02 09:20:29;;;;;;;2.83;1.67;;;5.60;99.90;;;;;;5031469;28;20109;-52
2021/12/02 09:22:54;;;;;;;2.15;1.55;;;5.60;99.90;;;;;;5031810;28;20021;-50
2021/12/02 09:25:20;;;;;;;1.70;1.20;;;5.70;99.90;;;;;;5031970;28;20030;-51
2021/12/02 09:27:46;;;;;;;1.60;1.20;;;5.90;99.90;;;;;;5031828;28;20487;-50
2021/12/02 09:30:14;;;;;;;2.10;1.10;;;5.90;99.90;;;;;;5031469;28;20030;-46
2021/12/02 09:32:39;;;;;;;1.73;1.17;;;6.00;99.90;;;;;;5030979;28;20032;-46
2021/12/02 09:35:07;;;;;;;2.25;1.10;;;6.10;99.90;;;;;;5031524;28;20034;-52
2021/12/02 09:37:33;;;;;;;1.38;1.27;;;6.10;99.90;;;;;;5031649;28;20051;-50
2021/12/02 09:39:59;;;;;;;1.38;1.27;;;6.20;99.90;;;;;;5031067;28;20072;-50
2021/12/02 09:42:26;;;;;;;1.15;1.15;;;6.20;99.90;;;;;;5030747;28;20107;-47
2021/12/02 09:44:55;;;;;;;1.05;1.05;;;6.20;99.90;;;;;;5033179;28;20025;-52
2021/12/02 09:47:22;;;;;;;3.22;1.50;;;6.30;99.90;;;;;;5034940;28;20021;-52
2021/12/02 09:49:48;;;;;;;4.38;1.77;;;6.20;99.90;;;;;;5017074;28;20432;-47
2021/12/02 09:52:15;;;;;;;1.95;1.00;;;6.20;99.90;;;;;;5028284;28;20056;-47
2021/12/02 09:54:45;;;;;;;3.97;1.30;;;6.30;99.90;;;;;;5034731;28;20029;-49
2021/12/02 09:57:14;;;;;;;1.10;1.10;;;6.30;99.90;;;;;;5034773;28;20021;-48
2021/12/02 10:02:12;;;;;;;1.55;1.45;;;6.30;99.90;;;;;;5035265;28;20360;-49
2021/12/02 10:05:02;;;;;;;0.90;0.90;;;6.20;99.90;;;;;;5023885;28;20054;-49
2021/12/02 10:07:35;;;;;;;2.70;1.45;;;6.30;99.90;;;;;;5014703;28;20049;-48
2021/12/02 10:10:23;;;;;;;1.75;1.65;;;6.30;99.90;;;;;;5014758;28;20499;-51
2021/12/02 10:16:22;;;;;;;1.02;0.93;;;6.30;99.90;;;;;;5017830;28;20503;-54
2021/12/02 10:21:24;;;;;;;5.18;1.85;;;6.20;99.90;;;;;;5034593;28;20029;-50
2021/12/02 10:23:52;;;;;;;1.30;1.20;;;6.10;99.90;;;;;;5034738;28;20398;-51
2021/12/02 10:26:18;;;;;;;1.15;1.05;;;6.10;99.90;;;;;;5033665;28;20022;-45
2021/12/02 10:28:45;;;;;;;2.78;1.17;;;6.10;99.90;;;;;;5034587;28;20021;-46
2021/12/02 10:31:18;;;;;;;1.33;1.23;;;6.20;99.90;;;;;;5033732;28;20032;-48
2021/12/02 10:34:04;;;;;;;1.75;1.40;;;6.20;99.90;;;;;;5031990;28;20022;-45
2021/12/02 10:36:44;;;;;;;1.58;1.30;;;6.20;99.90;;;;;;5034327;28;20112;-48
2021/12/02 10:39:20;;;;;;;2.58;1.40;;;6.20;99.90;;;;;;5030412;28;20104;-44
2021/12/02 10:41:47;;;;;;;;;;;6.20;99.90;;;;;;5034338;28;20021;-47
2021/12/02 10:44:15;;;;;;;9.30;4.97;;;6.20;99.90;;;;;;5034198;28;19916;-48
2021/12/02 10:47:00;;;;;;;2.95;1.80;;;6.20;99.90;;;;;;5034429;28;20021;-48
2021/12/02 10:49:29;;;;;;;1.13;0.90;;;6.10;99.90;;;;;;5029070;28;20708;-45
2021/12/02 10:51:57;;;;;;;2.05;1.23;;;6.00;99.90;;;;;;5034115;28;20029;-46
2021/12/02 10:54:24;;;;;;;1.23;0.88;;;5.90;99.90;;;;;;5033026;28;20036;-47
2021/12/02 10:56:52;;;;;;;2.03;1.27;;;5.80;99.90;;;;;;5033196;28;20021;-44
2021/12/02 10:59:27;;;;;;;0.88;0.88;;;5.80;99.90;;;;;;5032293;28;20441;-45
2021/12/02 11:01:55;;;;;;;2.70;1.20;;;5.80;99.90;;;;;;5015356;28;20030;-45
2021/12/02 11:04:22;;;;;;;2.15;0.80;;;5.70;99.90;;;;;;5030267;28;20634;-45
2021/12/02 11:06:50;;;;;;;4.38;1.35;;;5.70;99.90;;;;;;5034471;28;20029;-46
2021/12/02 11:09:31;;;;;;;2.45;1.52;;;5.90;99.90;;;;;;5033725;28;20077;-49
2021/12/02 11:12:16;;;;;;;1.45;1.00;;;6.00;99.90;;;;;;5033230;28;20026;-46
2021/12/02 11:14:55;;;;;;;1.35;1.02;;;6.20;99.90;;;;;;5032657;28;20072;-48
2021/12/02 11:17:21;;;;;;;1.58;1.27;;;6.30;99.90;;;;;;5033281;28;20041;-50
2021/12/02 11:19:51;;;;;;;4.90;2.35;;;6.30;99.90;;;;;;5033258;28;20108;-49
2021/12/02 11:22:20;;;;;;;1.15;0.80;;;6.20;99.90;;;;;;5033791;28;20026;-51
2021/12/02 11:24:48;;;;;;;2.65;1.45;;;6.20;99.90;;;;;;5032170;28;20386;-47
2021/12/02 11:27:18;;;;;;;3.70;2.15;;;6.10;99.90;;;;;;5032922;28;20100;-49
2021/12/02 11:29:53;;;;;;;7.40;1.20;;;6.00;99.90;;;;;;5033448;28;20025;-47
2021/12/02 11:32:33;;;;;;;2.03;1.27;;;6.00;99.90;;;;;;5033378;28;20025;-44
2021/12/02 11:35:10;;;;;;;1.85;1.15;;;6.10;99.90;;;;;;5033660;28;20087;-48
2021/12/02 11:37:38;;;;;;;1.20;1.08;;;6.20;99.90;;;;;;5032490;28;20029;-44
2021/12/02 11:40:11;;;;;;;3.33;1.10;;;6.20;99.90;;;;;;5033518;28;20029;-48
2021/12/02 11:42:38;;;;;;;1.80;1.25;;;6.10;99.90;;;;;;5033407;28;20479;-44
2021/12/02 11:45:06;;;;;;;2.17;0.77;;;6.10;99.90;;;;;;5031893;28;20041;-44
2021/12/02 11:47:32;;;;;;;2.92;0.93;;;6.20;99.90;;;;;;5034206;28;20021;-44
2021/12/02 11:49:58;;;;;;;0.73;0.73;;;6.20;99.90;;;;;;5032993;28;20041;-44
2021/12/02 11:52:24;;;;;;;0.95;0.82;;;6.30;99.90;;;;;;5032786;28;20073;-45
2021/12/02 11:54:50;;;;;;;1.00;0.75;;;6.30;99.90;;;;;;5032659;28;20112;-44
2021/12/02 11:57:17;;;;;;;5.00;1.80;;;6.40;99.90;;;;;;5031142;28;20506;-49
2021/12/02 11:59:43;;;;;;;3.33;1.20;;;6.30;99.90;;;;;;5032111;28;20032;-48
2021/12/02 12:02:09;;;;;;;5.28;2.42;;;6.30;99.90;;;;;;5031985;28;20033;-45
2021/12/02 12:04:38;;;;;;;0.95;0.90;;;6.40;99.90;;;;;;5032011;28;20045;-46
2021/12/02 12:07:14;;;;;;;2.78;1.05;;;6.50;99.90;;;;;;5032409;28;20021;-40
2021/12/02 12:09:40;;;;;;;2.05;0.95;;;6.50;99.90;;;;;;5030833;28;20034;-45
2021/12/02 12:12:07;;;;;;;7.22;2.05;;;6.50;99.90;;;;;;5032038;28;20036;-47
2021/12/02 12:14:41;;;;;;;0.70;0.70;;;6.60;99.90;;;;;;5032894;28;20071;-45
2021/12/02 12:17:11;;;;;;;2.67;0.88;;;6.60;99.90;;;;;;5032414;28;20036;-47
2021/12/02 12:19:52;;;;;;;0.95;0.93;;;6.60;99.90;;;;;;5032287;28;20466;-46
2021/12/02 12:22:32;;;;;;;0.98;0.63;;;6.50;99.90;;;;;;5032115;28;20053;-46
2021/12/02 12:25:03;;;;;;;3.15;0.85;;;6.50;99.90;;;;;;5032870;28;20095;-46
2021/12/02 12:27:34;;;;;;;2.15;0.60;;;6.50;99.90;;;;;;5032596;28;20021;-45
2021/12/02 12:30:19;;;;;;;0.63;0.50;;;6.60;99.90;;;;;;5037569;28;20033;-50
2021/12/02 12:33:06;;;;;;;1.75;0.70;;;6.70;99.90;;;;;;5038116;28;20063;-53
2021/12/02 12:38:28;;;;;;;2.67;0.70;;;6.80;99.90;;;;;;5034888;28;20034;-49
2021/12/02 12:40:56;;;;;;;1.15;0.65;;;6.70;99.90;;;;;;5032562;28;20022;-47
2021/12/02 12:43:35;;;;;;;0.60;0.52;;;6.70;99.90;;;;;;5031935;28;20021;-45
2021/12/02 12:46:19;;;;;;;0.45;0.45;;;6.70;99.90;;;;;;5031904;28;20028;-46
2021/12/02 12:48:45;;;;;;;0.70;0.70;;;6.70;99.90;;;;;;5032347;28;20100;-47
2021/12/02 12:51:10;;;;;;;2.22;0.82;;;6.70;99.90;;;;;;5032409;28;20025;-51
2021/12/02 12:53:38;;;;;;;1.42;0.80;;;6.60;99.90;;;;;;5032257;28;20032;-49
2021/12/02 12:56:09;;;;;;;1.90;1.25;;;6.60;99.90;;;;;;5014334;28;20030;-52
2021/12/02 12:58:38;;;;;;;1.58;0.80;;;6.50;99.90;;;;;;5024687;28;20030;-46
2021/12/02 13:01:21;;;;;;;1.15;1.05;;;6.40;99.90;;;;;;5030973;28;20108;-50
2021/12/02 13:04:06;;;;;;;2.35;0.90;;;6.30;99.90;;;;;;5031443;28;20089;-47
2021/12/02 13:06:46;;;;;;;1.37;1.27;;;6.30;99.90;;;;;;5031932;28;20056;-51
2021/12/02 13:09:12;;;;;;;1.25;1.13;;;6.30;99.90;;;;;;5031729;28;20094;-46
2021/12/02 13:11:38;;;;;;;1.45;1.35;;;6.40;99.90;;;;;;5031978;28;20096;-45
2021/12/02 13:14:04;;;;;;;2.40;1.08;;;6.40;99.90;;;;;;5031780;28;20063;-48
2021/12/02 13:16:31;;;;;;;1.02;1.00;;;6.40;99.90;;;;;;5030755;28;20108;-44
2021/12/02 13:19:00;;;;;;;3.40;1.35;;;6.40;99.90;;;;;;5031137;28;20458;-49
2021/12/02 13:21:30;;;;;;;2.35;1.52;;;6.40;99.90;;;;;;5031685;28;20395;-47
2021/12/02 13:24:06;;;;;;;1.55;1.10;;;6.40;99.90;;;;;;5031529;28;20044;-44
2021/12/02 13:26:35;;;;;;;1.30;1.10;;;6.40;99.90;;;;;;5031321;28;20024;-48
2021/12/02 13:29:11;;;;;;;1.92;1.38;;;6.50;99.90;;;;;;5030781;28;20046;-47
2021/12/02 13:31:41;;;;;;;1.50;1.40;;;6.60;99.90;;;;;;5031474;28;20029;-46